METAR Data
IDs: Format: Raw Decoded Include TAF

Data at: 0957 UTC 13 Aug 2022

SADF 130929Z VRB01KT 0100 R05/2000D BCFG NSC 07/07 Q1017